Time;durP1;ratioP1;P1;durP2;ratioP2;P2;SDS_P1;SDS_P2;PMS_P1;PMS_P2;Temp;Humidity;BMP_temperature;BMP_pressure;BME280_temperature;BME280_humidity;BME280_pressure;Samples;Min_cycle;Max_cycle;Signal;HPM_P1;HPM_P2
2024/01/10 00:00:40;;;;;;;128.00;37.93;;;;;;;-10.28;89.26;101929.84;4235518;28;20227;-68
2024/01/10 00:03:07;;;;;;;134.60;33.57;;;;;;;-10.31;90.00;101920.22;4242461;28;20233;-66
2024/01/10 00:05:33;;;;;;;134.27;37.40;;;;;;;-10.24;89.62;101921.16;4233912;28;22895;-67
2024/01/10 00:08:00;;;;;;;139.73;36.80;;;;;;;-10.22;89.50;101895.88;4243574;28;20939;-68
2024/01/10 00:10:27;;;;;;;119.87;33.40;;;;;;;-10.24;89.79;101898.47;4241991;28;21850;-65
2024/01/10 00:12:53;;;;;;;118.03;33.17;;;;;;;-10.14;89.37;101898.59;4252723;28;20686;-66
2024/01/10 00:15:21;;;;;;;132.83;32.60;;;;;;;-10.03;88.95;101902.22;4254193;28;21224;-65
2024/01/10 00:17:47;;;;;;;126.17;33.47;;;;;;;-9.97;88.38;101904.94;4234366;28;20227;-63
2024/01/10 00:20:14;;;;;;;127.33;34.23;;;;;;;-9.90;88.15;101903.28;4237218;28;20259;-66
2024/01/10 00:22:40;;;;;;;118.43;34.80;;;;;;;-9.93;87.63;101903.22;4240441;28;20506;-66
2024/01/10 00:25:07;;;;;;;113.77;32.17;;;;;;;-9.84;87.08;101890.25;4247090;28;22349;-69
2024/01/10 00:27:34;;;;;;;97.33;29.37;;;;;;;-9.75;87.16;101899.94;4236145;28;20286;-65
2024/01/10 00:30:01;;;;;;;118.70;30.60;;;;;;;-9.66;86.38;101901.78;4243897;28;20235;-70
2024/01/10 00:32:27;;;;;;;132.47;33.00;;;;;;;-9.74;86.61;101899.94;4239756;28;20248;-66
2024/01/10 00:34:54;;;;;;;121.40;33.87;;;;;;;-9.76;86.55;101903.41;4240853;28;22025;-69
2024/01/10 00:37:21;;;;;;;115.50;30.80;;;;;;;-9.75;86.47;101910.44;4236730;28;20240;-65
2024/01/10 00:39:47;;;;;;;120.90;33.43;;;;;;;-9.78;86.69;101906.03;4247856;28;20231;-68
2024/01/10 00:42:14;;;;;;;113.20;30.83;;;;;;;-9.73;86.38;101906.94;4239698;28;20654;-66
2024/01/10 00:44:40;;;;;;;120.53;32.83;;;;;;;-9.78;86.44;101900.78;4238990;28;22001;-67
2024/01/10 00:47:07;;;;;;;116.00;31.17;;;;;;;-9.84;86.83;101897.22;4235385;28;20931;-67
2024/01/10 00:49:34;;;;;;;119.50;31.80;;;;;;;-9.90;87.07;101900.66;4237290;28;20261;-69
2024/01/10 00:52:00;;;;;;;97.20;29.80;;;;;;;-9.83;86.56;101904.22;4232011;28;20964;-68
2024/01/10 00:54:27;;;;;;;113.90;32.50;;;;;;;-9.83;86.80;101909.44;4244972;28;22975;-68
2024/01/10 00:56:54;;;;;;;122.27;32.60;;;;;;;-9.78;86.69;101910.41;4236999;28;20281;-67
2024/01/10 00:59:21;;;;;;;117.63;35.27;;;;;;;-9.82;86.51;101911.22;4232472;28;20227;-68
2024/01/10 01:01:48;;;;;;;120.63;32.97;;;;;;;-9.90;86.95;101900.66;4230403;28;22029;-67
2024/01/10 01:04:14;;;;;;;130.57;32.97;;;;;;;-9.94;87.15;101907.59;4247265;28;20745;-67
2024/01/10 01:06:41;;;;;;;124.53;31.53;;;;;;;-9.99;87.48;101905.78;4240604;28;20234;-66
2024/01/10 01:09:07;;;;;;;134.90;32.73;;;;;;;-10.01;87.76;101908.38;4248708;28;20230;-53
2024/01/10 01:11:34;;;;;;;121.67;35.30;;;;;;;-10.05;88.15;101909.19;4243008;28;20262;-67
2024/01/10 01:14:00;;;;;;;127.97;35.50;;;;;;;-10.01;87.78;101900.53;4245066;28;20301;-68
2024/01/10 01:16:27;;;;;;;122.67;36.57;;;;;;;-10.12;88.00;101897.72;4225377;28;20246;-69
2024/01/10 01:18:54;;;;;;;129.27;35.20;;;;;;;-10.16;88.43;101895.09;4238134;28;20248;-67
2024/01/10 01:21:21;;;;;;;137.43;37.47;;;;;;;-10.16;88.32;101888.09;4244971;28;20297;-68
2024/01/10 01:23:48;;;;;;;136.23;35.77;;;;;;;-10.17;88.86;101885.47;4244090;28;20229;-67
2024/01/10 01:26:14;;;;;;;126.47;36.97;;;;;;;-10.20;89.22;101884.56;4241074;28;20417;-65
2024/01/10 01:28:41;;;;;;;129.00;35.97;;;;;;;-10.22;89.35;101883.66;4238155;28;20244;-66
2024/01/10 01:31:08;;;;;;;111.33;37.07;;;;;;;-10.19;89.23;101869.72;4241773;28;20222;-68
2024/01/10 01:33:34;;;;;;;155.07;40.87;;;;;;;-10.21;89.42;101866.22;4224949;28;20227;-69
2024/01/10 01:36:01;;;;;;;126.73;35.07;;;;;;;-10.24;89.39;101863.53;4244670;28;20234;-69
2024/01/10 01:38:27;;;;;;;133.13;37.87;;;;;;;-10.23;89.70;101870.53;4238157;28;21135;-68
2024/01/10 01:40:55;;;;;;;137.97;37.80;;;;;;;-10.23;89.55;101862.69;4244045;28;20370;-65
2024/01/10 01:43:25;;;;;;;141.03;37.43;;;;;;;-10.21;89.72;101860.97;4221377;28;22158;-70
2024/01/10 01:45:54;;;;;;;134.57;40.40;;;;;;;-10.24;89.41;101863.53;4240943;28;20246;-68
2024/01/10 01:48:23;;;;;;;158.43;41.40;;;;;;;-10.26;89.53;101860.91;4242164;28;21179;-70
2024/01/10 01:50:54;;;;;;;112.20;33.83;;;;;;;-10.26;89.38;101862.63;4243756;28;20714;-67
2024/01/10 01:53:22;;;;;;;138.93;35.57;;;;;;;-10.24;89.71;101856.59;4241429;28;20242;-66
2024/01/10 01:55:49;;;;;;;139.47;35.23;;;;;;;-10.20;89.04;101858.38;4236981;28;20241;-67
2024/01/10 01:58:16;;;;;;;116.20;35.60;;;;;;;-10.20;89.45;101863.59;4242474;28;22218;-65
2024/01/10 02:00:43;;;;;;;139.90;39.23;;;;;;;-10.16;89.06;101856.66;4242224;28;20239;-69
2024/01/10 02:03:10;;;;;;;150.17;37.83;;;;;;;-10.17;88.67;101852.28;4238499;28;22769;-65
2024/01/10 02:05:37;;;;;;;135.87;34.50;;;;;;;-10.15;88.72;101852.28;4241774;28;21621;-66
2024/01/10 02:08:05;;;;;;;135.73;38.47;;;;;;;-10.17;88.64;101861.91;4246883;28;20241;-66
2024/01/10 02:10:31;;;;;;;122.97;34.03;;;;;;;-10.12;88.34;101868.94;4238070;28;20273;-68
2024/01/10 02:12:58;;;;;;;138.83;38.10;;;;;;;-10.19;88.37;101865.38;4235734;28;20238;-68
2024/01/10 02:15:25;;;;;;;122.87;35.90;;;;;;;-10.16;88.18;101864.53;4238105;28;20240;-66
2024/01/10 02:17:51;;;;;;;110.70;32.23;;;;;;;-10.16;88.42;101864.53;4237818;28;20229;-67
2024/01/10 02:20:18;;;;;;;125.83;35.50;;;;;;;-10.12;87.88;101861.06;4237430;28;20231;-66
2024/01/10 02:22:45;;;;;;;125.30;31.37;;;;;;;-10.13;87.87;101869.81;4253138;28;21115;-66
2024/01/10 02:25:13;;;;;;;116.47;32.83;;;;;;;-10.11;87.79;101864.59;4237215;28;22302;-66
2024/01/10 02:27:41;;;;;;;125.70;33.43;;;;;;;-10.17;87.69;101859.28;4237609;28;20718;-65
2024/01/10 02:30:08;;;;;;;113.23;33.40;;;;;;;-10.20;88.15;101858.38;4243274;28;20235;-67
2024/01/10 02:32:36;;;;;;;120.90;32.87;;;;;;;-10.22;88.47;101854.84;4223006;28;21004;-68
2024/01/10 02:35:04;;;;;;;97.27;26.77;;;;;;;-10.17;88.15;101857.53;4229067;28;20250;-68
2024/01/10 02:37:31;;;;;;;102.93;32.70;;;;;;;-10.07;87.52;101862.03;4244523;28;25912;-67
2024/01/10 02:39:57;;;;;;;98.30;31.40;;;;;;;-10.14;87.94;101859.28;4234834;28;20815;-68
2024/01/10 02:42:24;;;;;;;118.90;33.77;;;;;;;-10.22;88.15;101851.34;4240307;28;22271;-68
2024/01/10 02:44:50;;;;;;;108.03;31.47;;;;;;;-10.24;88.23;101848.72;4245923;28;22512;-66
2024/01/10 02:47:17;;;;;;;114.20;31.63;;;;;;;-10.24;88.59;101846.13;4243718;28;20226;-69
2024/01/10 02:49:43;;;;;;;119.03;33.40;;;;;;;-10.24;88.23;101846.13;4242573;28;20315;-69
2024/01/10 02:52:10;;;;;;;129.83;33.57;;;;;;;-10.30;88.83;101830.31;4253699;28;20357;-69
2024/01/10 02:54:37;;;;;;;97.53;29.67;;;;;;;-10.25;88.75;101828.63;4245033;28;20233;-68
2024/01/10 02:57:03;;;;;;;113.50;33.40;;;;;;;-10.22;88.71;101825.19;4241823;28;20234;-68
2024/01/10 02:59:30;;;;;;;125.47;35.77;;;;;;;-10.28;88.92;101815.50;4243891;28;21184;-67
2024/01/10 03:01:56;;;;;;;102.83;30.20;;;;;;;-10.21;89.05;101821.69;4245692;28;20251;-69
2024/01/10 03:04:23;;;;;;;116.37;32.63;;;;;;;-10.24;89.06;101811.19;4240290;28;20230;-66
2024/01/10 03:06:50;;;;;;;120.50;33.53;;;;;;;-10.31;89.10;101801.50;4242120;28;20313;-65
2024/01/10 03:09:16;;;;;;;110.70;33.63;;;;;;;-10.32;89.62;101803.25;4229572;28;20480;-65
2024/01/10 03:11:43;;;;;;;115.67;31.87;;;;;;;-10.32;89.52;101805.84;4251346;28;21557;-65
2024/01/10 03:14:11;;;;;;;118.33;32.97;;;;;;;-10.35;89.64;101809.28;4254606;28;20270;-67
2024/01/10 03:16:38;;;;;;;124.03;33.50;;;;;;;-10.28;89.52;101807.63;4242188;28;20249;-68
2024/01/10 03:19:04;;;;;;;123.23;35.17;;;;;;;-10.25;89.34;101807.69;4241720;28;20312;-66
2024/01/10 03:21:31;;;;;;;122.57;34.60;;;;;;;-10.22;88.92;101812.09;4244234;28;22190;-65
2024/01/10 03:24:00;;;;;;;128.87;34.37;;;;;;;-10.28;88.81;101807.63;4251282;28;21455;-67
2024/01/10 03:26:28;;;;;;;118.90;32.50;;;;;;;-10.32;89.48;101799.72;4245516;28;20234;-70
2024/01/10 03:28:55;;;;;;;124.93;32.97;;;;;;;-10.39;89.60;101785.72;4248930;28;20237;-66
2024/01/10 03:31:21;;;;;;;120.33;36.33;;;;;;;-10.33;89.48;101793.63;4253666;28;20338;-66
2024/01/10 03:33:48;;;;;;;149.33;40.27;;;;;;;-10.36;89.80;101796.19;4247769;28;20563;-67
2024/01/10 03:36:16;;;;;;;137.27;35.20;;;;;;;-10.29;89.40;101787.56;4257212;28;20650;-69
2024/01/10 03:38:44;;;;;;;116.97;34.73;;;;;;;-10.35;89.36;101796.19;4244265;28;20230;-65
2024/01/10 03:41:14;;;;;;;115.93;34.03;;;;;;;-10.36;89.54;101789.25;4243334;28;20275;-67
2024/01/10 03:43:41;;;;;;;109.90;33.03;;;;;;;-10.34;89.60;101786.63;4247701;28;21002;-69
2024/01/10 03:46:09;;;;;;;105.27;31.00;;;;;;;-10.37;89.63;101797.97;4241857;28;20279;-67
2024/01/10 03:48:35;;;;;;;108.50;31.63;;;;;;;-10.36;90.09;101796.19;4250691;28;20304;-66
2024/01/10 03:51:02;;;;;;;134.07;37.40;;;;;;;-10.38;90.06;101790.97;4247004;28;20303;-68
2024/01/10 03:53:30;;;;;;;117.37;33.00;;;;;;;-10.35;89.87;101788.34;4253337;28;20307;-67
2024/01/10 03:55:56;;;;;;;128.07;36.00;;;;;;;-10.41;89.84;101785.69;4245093;28;21370;-67
2024/01/10 03:58:24;;;;;;;111.73;32.70;;;;;;;-10.39;90.22;101790.97;4234467;28;20261;-67
2024/01/10 04:00:50;;;;;;;128.57;35.87;;;;;;;-10.40;90.18;101778.75;4247160;28;20247;-67
2024/01/10 04:03:17;;;;;;;128.77;37.17;;;;;;;-10.40;90.04;101779.59;4245075;28;21752;-68
2024/01/10 04:05:44;;;;;;;124.00;36.67;;;;;;;-10.42;90.26;101780.44;4265344;28;20308;-67
2024/01/10 04:08:10;;;;;;;124.87;34.70;;;;;;;-10.43;90.34;101768.22;4247364;28;20237;-67
2024/01/10 04:10:37;;;;;;;108.67;32.67;;;;;;;-10.48;90.15;101768.16;4242894;28;20232;-68
2024/01/10 04:13:04;;;;;;;134.73;38.00;;;;;;;-10.49;90.09;101763.78;4249142;28;20239;-68
2024/01/10 04:15:30;;;;;;;130.80;35.87;;;;;;;-10.46;90.18;101760.34;4250111;28;20255;-65
2024/01/10 04:17:57;;;;;;;118.30;36.03;;;;;;;-10.47;90.43;101759.44;4242468;28;22009;-67
2024/01/10 04:20:23;;;;;;;125.57;33.57;;;;;;;-10.48;89.98;101757.69;4226775;28;20253;-68
2024/01/10 04:22:50;;;;;;;121.90;33.17;;;;;;;-10.49;89.86;101755.94;4248888;28;21950;-69
2024/01/10 04:25:16;;;;;;;114.47;34.77;;;;;;;-10.46;90.20;101745.50;4244237;28;20271;-67
2024/01/10 04:27:43;;;;;;;124.83;34.03;;;;;;;-10.48;90.06;101746.34;4236999;28;20256;-68
2024/01/10 04:30:10;;;;;;;132.83;34.27;;;;;;;-10.45;90.05;101752.50;4247384;28;20283;-67
2024/01/10 04:32:37;;;;;;;117.60;34.83;;;;;;;-10.43;89.76;101750.78;4247644;28;21657;-66
2024/01/10 04:35:03;;;;;;;101.87;31.13;;;;;;;-10.47;90.23;101743.75;4244339;28;20276;-67
2024/01/10 04:37:30;;;;;;;110.47;31.23;;;;;;;-10.48;89.98;101741.97;4261456;28;21289;-68
2024/01/10 04:39:57;;;;;;;130.70;35.03;;;;;;;-10.50;90.09;101741.09;4249785;28;20240;-68
2024/01/10 04:42:23;;;;;;;117.00;32.80;;;;;;;-10.54;90.43;101750.66;4248871;28;20234;-65
2024/01/10 04:44:50;;;;;;;126.83;31.63;;;;;;;-10.52;90.13;101746.31;4239734;28;20303;-67
2024/01/10 04:47:17;;;;;;;123.07;35.20;;;;;;;-10.47;89.98;101756.84;4255488;28;20460;-67
2024/01/10 04:49:43;;;;;;;110.77;35.13;;;;;;;-10.43;89.87;101749.91;4250123;28;20234;-67
2024/01/10 04:52:10;;;;;;;114.27;33.47;;;;;;;-10.45;89.45;101756.84;4245697;28;21677;-67
2024/01/10 04:54:36;;;;;;;135.70;37.00;;;;;;;-10.44;89.67;101761.22;4245429;28;21709;-67
2024/01/10 04:57:03;;;;;;;112.73;30.33;;;;;;;-10.40;90.11;101758.66;4248058;28;20313;-67
2024/01/10 04:59:30;;;;;;;127.67;33.03;;;;;;;-10.40;89.87;101752.56;4246600;28;21115;-66
2024/01/10 05:01:56;;;;;;;135.73;37.97;;;;;;;-10.41;89.70;101766.50;4257992;28;20222;-67
2024/01/10 05:04:23;;;;;;;138.83;40.67;;;;;;;-10.36;90.19;101768.28;4259070;28;20268;-68
2024/01/10 05:06:49;;;;;;;123.23;34.53;;;;;;;-10.39;89.94;101770.91;4242040;28;20305;-69
2024/01/10 05:09:16;;;;;;;114.37;32.50;;;;;;;-10.37;89.94;101774.41;4247887;28;23040;-66
2024/01/10 05:11:47;;;;;;;114.77;32.37;;;;;;;-10.35;89.98;101782.25;4240795;28;22897;-68
2024/01/10 05:14:13;;;;;;;112.30;32.53;;;;;;;-10.40;89.75;101782.22;4242867;28;20225;-69
2024/01/10 05:16:40;;;;;;;126.87;36.33;;;;;;;-10.58;89.92;101764.56;4244901;28;20234;-68
2024/01/10 05:19:06;;;;;;;126.23;35.40;;;;;;;-10.48;90.09;101777.75;4249578;28;20633;-66
2024/01/10 05:21:33;;;;;;;120.83;32.97;;;;;;;-10.47;90.23;101787.38;4242472;28;20222;-65
2024/01/10 05:24:00;;;;;;;128.43;34.70;;;;;;;-10.48;89.79;101777.75;4242058;28;21876;-68
2024/01/10 05:26:26;;;;;;;129.37;38.33;;;;;;;-10.44;89.68;101774.31;4231611;28;20233;-69
2024/01/10 05:28:53;;;;;;;125.77;35.80;;;;;;;-10.51;89.79;101771.63;4249059;28;20223;-65
2024/01/10 05:31:20;;;;;;;117.33;31.40;;;;;;;-10.54;90.04;101762.84;4245173;28;20536;-66
2024/01/10 05:33:46;;;;;;;126.33;35.10;;;;;;;-10.57;89.81;101754.97;4241115;28;21142;-68
2024/01/10 05:36:13;;;;;;;124.70;36.67;;;;;;;-10.62;90.15;101762.78;4251218;28;23358;-66
2024/01/10 05:38:40;;;;;;;128.97;34.17;;;;;;;-10.61;89.35;101771.47;4245511;28;20238;-67
2024/01/10 05:41:06;;;;;;;124.83;34.60;;;;;;;-10.61;89.64;101772.34;4223192;28;20560;-69
2024/01/10 05:43:33;;;;;;;117.57;33.57;;;;;;;-10.67;89.50;101770.56;4248401;28;20242;-66
2024/01/10 05:46:00;;;;;;;112.13;32.17;;;;;;;-10.59;89.31;101775.00;4252697;28;21152;-65
2024/01/10 05:48:26;;;;;;;121.37;32.03;;;;;;;-10.60;89.61;101773.25;4248135;28;23697;-68
2024/01/10 05:50:53;;;;;;;136.43;36.40;;;;;;;-10.60;89.69;101775.88;4249128;28;20352;-65
2024/01/10 05:53:20;;;;;;;137.67;36.73;;;;;;;-10.51;89.45;101769.00;4240682;28;22259;-70
2024/01/10 05:55:46;;;;;;;122.50;33.10;;;;;;;-10.54;89.39;101773.31;4243918;28;20446;-67
2024/01/10 05:58:13;;;;;;;125.60;34.23;;;;;;;-10.57;89.60;101757.59;4239404;28;20517;-70
2024/01/10 06:00:40;;;;;;;117.57;32.63;;;;;;;-10.56;89.31;101761.94;4246809;28;20230;-66
2024/01/10 06:03:07;;;;;;;109.23;32.13;;;;;;;-10.45;89.21;101760.34;4245867;28;20238;-68
2024/01/10 06:05:34;;;;;;;125.37;33.37;;;;;;;-10.52;89.37;101759.38;4251487;28;20303;-67
2024/01/10 06:08:03;;;;;;;118.17;34.87;;;;;;;-10.46;89.66;101753.34;4247777;28;20233;-66
2024/01/10 06:10:30;;;;;;;124.80;33.90;;;;;;;-10.48;89.78;101751.59;4244231;28;21735;-65
2024/01/10 06:13:01;;;;;;;140.93;37.63;;;;;;;-10.54;89.92;101744.53;4243395;28;20232;-67
2024/01/10 06:15:28;;;;;;;126.80;37.40;;;;;;;-10.56;90.33;101727.91;4248451;28;20241;-70
2024/01/10 06:17:54;;;;;;;131.37;37.20;;;;;;;-10.57;90.22;101742.75;4241122;28;20874;-66
2024/01/10 06:20:22;;;;;;;145.70;38.63;;;;;;;-10.54;90.46;101739.28;4240632;28;20234;-71
2024/01/10 06:22:49;;;;;;;135.10;40.63;;;;;;;-10.56;90.29;101739.28;4229857;28;22318;-67
2024/01/10 06:25:16;;;;;;;120.30;39.03;;;;;;;-10.56;90.44;101734.06;4247635;28;24129;-67
2024/01/10 06:27:43;;;;;;;146.70;39.60;;;;;;;-10.55;90.44;101746.28;4227384;28;20221;-68
2024/01/10 06:30:10;;;;;;;142.33;41.60;;;;;;;-10.49;90.22;101734.13;4260158;28;20237;-68
2024/01/10 06:32:36;;;;;;;123.10;38.87;;;;;;;-10.47;90.10;101745.50;4242672;28;21962;-68
2024/01/10 06:35:04;;;;;;;135.77;35.97;;;;;;;-10.50;90.09;101754.19;4242290;28;20810;-67
2024/01/10 06:37:31;;;;;;;137.50;35.30;;;;;;;-10.52;90.26;101755.91;4247723;28;21815;-69
2024/01/10 06:40:00;;;;;;;135.37;39.57;;;;;;;-10.47;89.91;101755.97;4235664;28;20334;-68
2024/01/10 06:42:27;;;;;;;120.93;34.70;;;;;;;-10.43;89.45;101763.88;4235318;28;20305;-65
2024/01/10 06:44:53;;;;;;;131.60;32.73;;;;;;;-10.40;89.97;101765.66;4250063;28;20277;-68
2024/01/10 06:47:21;;;;;;;112.73;34.33;;;;;;;-10.54;89.87;101755.91;4253057;28;21143;-67
2024/01/10 06:49:48;;;;;;;130.70;38.33;;;;;;;-10.48;90.06;101762.06;4244230;28;20234;-68
2024/01/10 06:52:15;;;;;;;114.07;35.80;;;;;;;-10.48;90.07;101767.28;4244919;28;20253;-73
2024/01/10 06:54:43;;;;;;;120.00;32.73;;;;;;;-10.47;89.92;101755.97;4256613;28;20424;-70
2024/01/10 06:57:09;;;;;;;106.60;32.83;;;;;;;-10.32;89.70;101763.97;4255230;28;21225;-74
2024/01/10 06:59:36;;;;;;;122.57;35.67;;;;;;;-10.45;89.22;101757.75;4244862;28;20231;-70
2024/01/10 07:02:04;;;;;;;132.20;36.23;;;;;;;-10.42;89.48;101773.47;4254088;28;20267;-71
2024/01/10 07:04:32;;;;;;;120.60;31.70;;;;;;;-10.33;89.04;101763.94;4260562;28;21234;-71
2024/01/10 07:06:58;;;;;;;124.53;35.23;;;;;;;-10.35;89.30;101758.69;4258511;28;20416;-72
2024/01/10 07:09:25;;;;;;;129.27;35.83;;;;;;;-10.38;89.13;101775.28;4244889;28;25983;-71
2024/01/10 07:11:52;;;;;;;145.53;34.87;;;;;;;-10.35;89.27;101774.41;4242171;28;25470;-71
2024/01/10 07:14:19;;;;;;;116.80;34.93;;;;;;;-10.30;88.86;101777.94;4283804;28;20259;-73
2024/01/10 07:16:47;;;;;;;132.33;33.33;;;;;;;-10.16;88.86;101772.88;4257475;28;22021;-71
2024/01/10 07:19:14;;;;;;;137.87;40.83;;;;;;;-10.32;88.62;101757.84;4306407;28;20246;-71
2024/01/10 07:21:42;;;;;;;134.43;37.43;;;;;;;-10.26;88.85;101774.50;4299630;28;20359;-71
2024/01/10 07:24:09;;;;;;;128.67;37.47;;;;;;;-10.23;88.82;101786.75;4287179;28;20225;-73
2024/01/10 07:26:37;;;;;;;146.33;36.30;;;;;;;-10.27;89.29;101780.59;4271332;28;20698;-72
2024/01/10 07:29:08;;;;;;;125.33;37.50;;;;;;;-10.09;88.59;101779.94;4284781;28;22058;-70
2024/01/10 07:31:35;;;;;;;141.70;38.47;;;;;;;-10.09;88.25;101779.06;4274760;28;20399;-72
2024/01/10 07:34:04;;;;;;;136.53;37.13;;;;;;;-10.11;88.65;101775.53;4299901;28;20333;-71
2024/01/10 07:36:35;;;;;;;140.03;36.60;;;;;;;-9.92;88.08;101774.88;4306779;28;20222;-72
2024/01/10 07:39:02;;;;;;;138.70;37.97;;;;;;;-9.91;87.59;101773.13;4262694;28;20241;-71
2024/01/10 07:41:30;;;;;;;133.57;37.93;;;;;;;-10.02;87.72;101775.66;4244400;28;20542;-71
2024/01/10 07:43:57;;;;;;;150.70;37.43;;;;;;;-9.97;87.50;101758.22;4265808;28;23372;-71
2024/01/10 07:46:23;;;;;;;141.20;35.73;;;;;;;-9.93;87.45;101759.13;4244981;28;20281;-71
2024/01/10 07:48:50;;;;;;;122.90;34.03;;;;;;;-9.89;87.18;101763.53;4248128;28;20235;-70
2024/01/10 07:51:17;;;;;;;128.47;35.67;;;;;;;-9.90;87.62;101770.53;4251227;28;20228;-71
2024/01/10 07:53:44;;;;;;;150.70;42.30;;;;;;;-9.99;88.09;101772.19;4267663;28;21563;-71
2024/01/10 07:56:12;;;;;;;130.63;36.97;;;;;;;-9.88;88.34;101774.03;4233400;28;22123;-70
2024/01/10 07:58:39;;;;;;;137.70;38.63;;;;;;;-9.84;87.61;101761.84;4247427;28;20234;-71
2024/01/10 08:01:05;;;;;;;143.53;36.37;;;;;;;-9.87;87.78;101764.44;4254454;28;20240;-71
2024/01/10 08:03:33;;;;;;;126.13;36.80;;;;;;;-9.83;87.99;101773.19;4244571;28;20239;-68
2024/01/10 08:06:00;;;;;;;138.77;39.00;;;;;;;-9.73;87.89;101770.69;4252208;28;20234;-68
2024/01/10 08:08:26;;;;;;;142.23;39.80;;;;;;;-9.70;87.28;101777.69;4252181;28;22335;-71
2024/01/10 08:10:53;;;;;;;132.03;37.37;;;;;;;-9.58;86.79;101767.34;4265388;28;21799;-69
2024/01/10 08:13:20;;;;;;;152.37;41.10;;;;;;;-9.66;86.81;101771.63;4246534;28;21801;-67
2024/01/10 08:15:47;;;;;;;133.70;38.57;;;;;;;-9.72;86.84;101772.44;4265001;28;20569;-68
2024/01/10 08:18:14;;;;;;;123.43;37.37;;;;;;;-9.64;87.06;101769.91;4254266;28;20588;-70
2024/01/10 08:20:41;;;;;;;144.50;40.50;;;;;;;-9.55;86.88;101772.59;4274660;28;21363;-65
2024/01/10 08:23:08;;;;;;;143.93;42.03;;;;;;;-9.58;87.04;101769.06;4266222;28;20233;-69
2024/01/10 08:25:35;;;;;;;138.57;37.13;;;;;;;-9.43;86.67;101771.81;4250592;28;23348;-70
2024/01/10 08:28:01;;;;;;;152.83;45.20;;;;;;;-9.42;86.33;101764.84;4264989;28;20232;-71
2024/01/10 08:30:28;;;;;;;140.10;39.40;;;;;;;-9.46;86.62;101761.31;4247518;28;20231;-70
2024/01/10 08:32:55;;;;;;;151.80;38.90;;;;;;;-9.28;86.33;101760.59;4266993;28;20235;-72
2024/01/10 08:35:22;;;;;;;145.17;41.57;;;;;;;-9.19;85.88;101765.00;4249197;28;21759;-71
2024/01/10 08:37:54;;;;;;;159.77;41.60;;;;;;;-9.22;86.04;101762.38;4254942;28;20310;-73
2024/01/10 08:40:25;;;;;;;144.57;41.23;;;;;;;-9.25;86.47;101760.59;4254323;28;21834;-72
2024/01/10 08:42:52;;;;;;;142.20;39.10;;;;;;;-9.07;85.84;101753.72;4242695;28;20595;-73
2024/01/10 08:45:19;;;;;;;143.70;38.80;;;;;;;-8.65;85.48;101757.47;4236806;28;21624;-73
2024/01/10 08:47:46;;;;;;;154.07;41.43;;;;;;;-7.87;81.33;101755.94;4261954;28;21560;-73
2024/01/10 08:50:14;;;;;;;145.33;44.07;;;;;;;-7.12;77.59;101743.66;4354631;28;20883;-74
2024/01/10 08:52:40;;;;;;;117.80;36.50;;;;;;;-6.40;75.91;101747.84;4319761;28;20797;-75
2024/01/10 08:55:07;;;;;;;136.40;39.03;;;;;;;-6.11;73.35;101756.47;4300631;28;20257;-75
2024/01/10 08:57:39;;;;;;;141.73;37.40;;;;;;;-5.13;69.29;101749.56;4290653;28;20279;-74
2024/01/10 09:00:11;;;;;;;124.43;37.90;;;;;;;-5.84;71.62;101752.75;4344399;28;20239;-72
2024/01/10 09:02:39;;;;;;;131.50;40.47;;;;;;;-6.11;72.83;101762.63;4307905;28;20834;-71
2024/01/10 09:05:09;;;;;;;118.37;35.30;;;;;;;-4.99;69.89;101761.75;4265071;28;20271;-73
2024/01/10 09:07:38;;;;;;;120.83;36.63;;;;;;;-3.96;65.35;101772.88;4322283;28;20302;-70
2024/01/10 09:10:08;;;;;;;122.30;36.07;;;;;;;-3.52;63.21;101783.69;4300777;28;25945;-74
2024/01/10 09:12:35;;;;;;;115.90;35.53;;;;;;;-3.36;61.37;101785.22;4349304;28;20311;-72
2024/01/10 09:15:02;;;;;;;112.60;34.40;;;;;;;-3.62;61.82;101788.25;4276060;28;21717;-69
2024/01/10 09:17:29;;;;;;;123.17;35.93;;;;;;;-4.18;64.90;101781.09;4283327;28;20235;-71
2024/01/10 09:19:56;;;;;;;115.60;34.07;;;;;;;-2.77;61.06;101770.94;4266527;28;23890;-71
2024/01/10 09:22:23;;;;;;;128.37;37.63;;;;;;;-4.59;65.02;101771.00;4233366;28;20244;-68
2024/01/10 09:24:49;;;;;;;122.30;38.47;;;;;;;-4.35;65.20;101765.44;4246451;28;20347;-72
2024/01/10 09:27:16;;;;;;;113.63;34.57;;;;;;;-1.95;59.69;101756.00;4254866;28;20231;-74
2024/01/10 09:29:43;;;;;;;117.33;36.10;;;;;;;-1.89;57.68;101762.97;4273581;28;20280;-79
2024/01/10 09:32:09;;;;;;;115.03;35.57;;;;;;;-1.23;57.36;101759.63;4253372;28;20676;-77
2024/01/10 09:34:36;;;;;;;135.07;40.23;;;;;;;-0.46;53.17;101757.56;4258147;28;21292;-76
2024/01/10 09:37:04;;;;;;;142.37;38.73;;;;;;;-1.09;56.09;101748.66;4271596;28;21098;-76
2024/01/10 09:39:30;;;;;;;121.77;40.33;;;;;;;-2.13;57.56;101759.94;4249803;28;20308;-75
2024/01/10 09:41:58;;;;;;;129.13;41.23;;;;;;;-2.31;58.47;101766.53;4273758;28;20336;-73
2024/01/10 09:44:25;;;;;;;125.13;39.37;;;;;;;-3.78;64.46;101773.50;4269962;28;20227;-76
2024/01/10 09:46:55;;;;;;;125.10;40.00;;;;;;;-4.14;65.02;101766.94;4240193;28;20634;-74
2024/01/10 09:49:22;;;;;;;120.30;35.90;;;;;;;-3.16;62.94;101754.00;4280484;28;20240;-75
2024/01/10 09:51:53;;;;;;;125.53;41.67;;;;;;;-3.93;64.58;101764.91;4270157;28;20231;-77
2024/01/10 09:54:25;;;;;;;126.97;37.47;;;;;;;-3.57;63.60;101753.78;4242984;28;21700;-76
2024/01/10 09:56:53;;;;;;;129.13;37.37;;;;;;;-3.57;65.05;101765.25;4244042;28;20574;-73
2024/01/10 09:59:22;;;;;;;102.43;34.90;;;;;;;-3.45;64.59;101768.59;4253486;28;20327;-76
2024/01/10 10:01:51;;;;;;;145.57;42.00;;;;;;;-3.49;64.50;101767.78;4247262;28;20843;-69
2024/01/10 10:04:19;;;;;;;129.03;38.43;;;;;;;-3.91;66.50;101770.16;4229911;28;20235;-69
2024/01/10 10:06:47;;;;;;;141.30;41.83;;;;;;;-4.03;66.73;101771.19;4241161;28;20903;-71
2024/01/10 10:09:15;;;;;;;124.30;38.70;;;;;;;-4.28;67.84;101766.25;4234011;28;22595;-69
2024/01/10 10:11:41;;;;;;;136.67;37.73;;;;;;;-3.38;65.47;101757.88;4234918;28;20342;-69
2024/01/10 10:14:16;;;;;;;125.57;38.90;;;;;;;-3.28;65.52;101749.78;4239157;28;20232;-67
2024/01/10 10:16:43;;;;;;;124.80;38.13;;;;;;;-4.36;68.42;101744.31;4247956;28;20302;-69
2024/01/10 10:19:11;;;;;;;128.50;37.53;;;;;;;-3.49;65.99;101746.59;4236196;28;20243;-74
2024/01/10 10:21:44;;;;;;;124.57;40.13;;;;;;;-4.06;67.56;101745.66;4242842;28;22312;-75
2024/01/10 10:24:13;;;;;;;116.37;36.07;;;;;;;-3.47;67.63;101749.22;4234955;28;20278;-69
2024/01/10 10:26:43;;;;;;;124.50;39.07;;;;;;;-4.00;67.86;101742.06;4223236;28;20244;-70
2024/01/10 10:29:10;;;;;;;146.60;41.27;;;;;;;-3.88;68.08;101746.31;4243188;28;20227;-71
2024/01/10 10:31:36;;;;;;;138.23;42.50;;;;;;;-3.90;67.87;101738.41;4229887;28;20709;-71
2024/01/10 10:34:03;;;;;;;128.03;39.97;;;;;;;-3.00;64.98;101729.00;4238521;28;22968;-71
2024/01/10 10:36:31;;;;;;;140.67;40.37;;;;;;;-3.29;65.99;101719.78;4230878;28;20265;-69
2024/01/10 10:39:02;;;;;;;119.07;38.47;;;;;;;-3.43;66.52;101732.38;4259220;28;20242;-71
2024/01/10 10:41:31;;;;;;;130.60;39.13;;;;;;;-4.17;69.42;101740.53;4248826;28;25703;-71
2024/01/10 10:43:58;;;;;;;136.97;43.43;;;;;;;-4.28;70.68;101734.53;4244107;28;20242;-69
2024/01/10 10:46:27;;;;;;;121.83;38.67;;;;;;;-3.47;68.14;101726.25;4269891;28;20619;-73
2024/01/10 10:49:00;;;;;;;131.03;39.37;;;;;;;-3.60;67.73;101720.31;4357930;28;21516;-69
2024/01/10 10:51:34;;;;;;;124.10;38.50;;;;;;;-2.83;65.42;101725.16;4236293;28;20227;-68
2024/01/10 10:54:03;;;;;;;125.93;39.07;;;;;;;-3.23;66.81;101714.38;4272329;28;20649;-69
2024/01/10 10:56:36;;;;;;;131.27;37.83;;;;;;;-3.11;66.21;101705.34;4240744;28;20231;-70